sensor_id;sensor_type;location;lat;lon;timestamp;P1;durP1;ratioP1;P2;durP2;ratioP2
12306;SDS011;6216;51.146;7.008;2022-08-19T00:01:39;6.33;;;5.73;;
12306;SDS011;6216;51.146;7.008;2022-08-19T00:04:10;6.90;;;6.27;;
12306;SDS011;6216;51.146;7.008;2022-08-19T00:06:40;6.10;;;5.60;;
12306;SDS011;6216;51.146;7.008;2022-08-19T00:09:10;6.67;;;6.17;;
12306;SDS011;6216;51.146;7.008;2022-08-19T00:11:40;7.13;;;6.13;;
12306;SDS011;6216;51.146;7.008;2022-08-19T00:16:45;6.90;;;6.30;;
12306;SDS011;6216;51.146;7.008;2022-08-19T00:19:14;6.37;;;5.87;;
12306;SDS011;6216;51.146;7.008;2022-08-19T00:21:43;6.57;;;6.00;;
12306;SDS011;6216;51.146;7.008;2022-08-19T00:24:12;6.63;;;6.13;;
12306;SDS011;6216;51.146;7.008;2022-08-19T00:26:41;6.83;;;6.23;;
12306;SDS011;6216;51.146;7.008;2022-08-19T00:29:13;6.77;;;6.27;;
12306;SDS011;6216;51.146;7.008;2022-08-19T00:31:42;6.40;;;5.90;;
12306;SDS011;6216;51.146;7.008;2022-08-19T00:34:13;6.70;;;6.07;;
12306;SDS011;6216;51.146;7.008;2022-08-19T00:36:41;6.87;;;6.37;;
12306;SDS011;6216;51.146;7.008;2022-08-19T00:39:10;7.77;;;6.60;;
12306;SDS011;6216;51.146;7.008;2022-08-19T00:41:39;6.73;;;6.00;;
12306;SDS011;6216;51.146;7.008;2022-08-19T00:44:12;12.77;;;6.47;;
12306;SDS011;6216;51.146;7.008;2022-08-19T00:46:42;8.90;;;7.10;;
12306;SDS011;6216;51.146;7.008;2022-08-19T00:49:25;7.30;;;6.60;;
12306;SDS011;6216;51.146;7.008;2022-08-19T00:51:57;6.77;;;6.17;;
12306;SDS011;6216;51.146;7.008;2022-08-19T00:54:29;7.20;;;6.27;;
12306;SDS011;6216;51.146;7.008;2022-08-19T00:56:59;7.43;;;6.37;;
12306;SDS011;6216;51.146;7.008;2022-08-19T00:59:29;6.73;;;6.13;;
12306;SDS011;6216;51.146;7.008;2022-08-19T01:02:17;6.60;;;6.00;;
12306;SDS011;6216;51.146;7.008;2022-08-19T01:04:47;7.17;;;6.43;;
12306;SDS011;6216;51.146;7.008;2022-08-19T01:07:15;6.27;;;5.60;;
12306;SDS011;6216;51.146;7.008;2022-08-19T01:09:45;7.80;;;5.90;;
12306;SDS011;6216;51.146;7.008;2022-08-19T01:12:13;7.13;;;6.17;;
12306;SDS011;6216;51.146;7.008;2022-08-19T01:14:42;7.30;;;6.50;;
12306;SDS011;6216;51.146;7.008;2022-08-19T01:17:12;6.77;;;6.17;;
12306;SDS011;6216;51.146;7.008;2022-08-19T01:19:41;6.53;;;5.93;;
12306;SDS011;6216;51.146;7.008;2022-08-19T01:22:14;7.00;;;6.40;;
12306;SDS011;6216;51.146;7.008;2022-08-19T01:24:58;7.13;;;6.43;;
12306;SDS011;6216;51.146;7.008;2022-08-19T01:27:26;7.03;;;6.53;;
12306;SDS011;6216;51.146;7.008;2022-08-19T01:30:00;6.90;;;6.30;;
12306;SDS011;6216;51.146;7.008;2022-08-19T01:32:28;8.03;;;7.00;;
12306;SDS011;6216;51.146;7.008;2022-08-19T01:34:59;6.97;;;6.47;;
12306;SDS011;6216;51.146;7.008;2022-08-19T01:37:29;6.80;;;6.30;;
12306;SDS011;6216;51.146;7.008;2022-08-19T01:40:10;7.43;;;6.73;;
12306;SDS011;6216;51.146;7.008;2022-08-19T01:42:39;7.93;;;6.87;;
12306;SDS011;6216;51.146;7.008;2022-08-19T01:45:07;7.70;;;7.00;;
12306;SDS011;6216;51.146;7.008;2022-08-19T01:47:36;8.83;;;6.73;;
12306;SDS011;6216;51.146;7.008;2022-08-19T01:50:05;7.83;;;7.10;;
12306;SDS011;6216;51.146;7.008;2022-08-19T01:52:35;7.13;;;6.53;;
12306;SDS011;6216;51.146;7.008;2022-08-19T01:55:04;7.20;;;6.70;;
12306;SDS011;6216;51.146;7.008;2022-08-19T01:57:35;7.03;;;6.33;;
12306;SDS011;6216;51.146;7.008;2022-08-19T02:00:05;7.07;;;6.57;;
12306;SDS011;6216;51.146;7.008;2022-08-19T02:02:36;6.90;;;6.30;;
12306;SDS011;6216;51.146;7.008;2022-08-19T02:05:09;6.53;;;5.87;;
12306;SDS011;6216;51.146;7.008;2022-08-19T02:07:39;7.30;;;6.60;;
12306;SDS011;6216;51.146;7.008;2022-08-19T02:10:09;6.50;;;6.00;;
12306;SDS011;6216;51.146;7.008;2022-08-19T02:12:43;6.87;;;6.33;;
12306;SDS011;6216;51.146;7.008;2022-08-19T02:15:12;7.13;;;6.53;;
12306;SDS011;6216;51.146;7.008;2022-08-19T02:17:41;7.50;;;6.90;;
12306;SDS011;6216;51.146;7.008;2022-08-19T02:20:09;11.13;;;7.47;;
12306;SDS011;6216;51.146;7.008;2022-08-19T02:22:39;7.90;;;7.30;;
12306;SDS011;6216;51.146;7.008;2022-08-19T02:25:08;8.00;;;7.20;;
12306;SDS011;6216;51.146;7.008;2022-08-19T02:27:37;7.83;;;7.13;;
12306;SDS011;6216;51.146;7.008;2022-08-19T02:30:09;7.10;;;6.53;;
12306;SDS011;6216;51.146;7.008;2022-08-19T02:32:39;7.10;;;6.20;;
12306;SDS011;6216;51.146;7.008;2022-08-19T02:35:19;8.13;;;7.40;;
12306;SDS011;6216;51.146;7.008;2022-08-19T02:37:47;8.23;;;7.53;;
12306;SDS011;6216;51.146;7.008;2022-08-19T02:40:33;8.60;;;7.80;;
12306;SDS011;6216;51.146;7.008;2022-08-19T02:43:02;9.03;;;8.23;;
12306;SDS011;6216;51.146;7.008;2022-08-19T02:45:33;8.40;;;7.80;;
12306;SDS011;6216;51.146;7.008;2022-08-19T02:48:05;8.10;;;7.50;;
12306;SDS011;6216;51.146;7.008;2022-08-19T02:50:47;8.23;;;7.53;;
12306;SDS011;6216;51.146;7.008;2022-08-19T02:53:19;8.00;;;7.30;;
12306;SDS011;6216;51.146;7.008;2022-08-19T02:55:50;9.13;;;7.53;;
12306;SDS011;6216;51.146;7.008;2022-08-19T02:58:18;9.40;;;8.60;;
12306;SDS011;6216;51.146;7.008;2022-08-19T03:00:49;10.10;;;8.73;;
12306;SDS011;6216;51.146;7.008;2022-08-19T03:03:19;9.20;;;8.43;;
12306;SDS011;6216;51.146;7.008;2022-08-19T03:05:47;10.07;;;9.07;;
12306;SDS011;6216;51.146;7.008;2022-08-19T03:08:22;11.57;;;9.30;;
12306;SDS011;6216;51.146;7.008;2022-08-19T03:10:51;9.30;;;8.60;;
12306;SDS011;6216;51.146;7.008;2022-08-19T03:13:19;9.17;;;8.43;;
12306;SDS011;6216;51.146;7.008;2022-08-19T03:15:49;9.10;;;8.30;;
12306;SDS011;6216;51.146;7.008;2022-08-19T03:18:17;9.13;;;8.40;;
12306;SDS011;6216;51.146;7.008;2022-08-19T03:20:49;8.97;;;8.27;;
12306;SDS011;6216;51.146;7.008;2022-08-19T03:23:20;8.57;;;7.97;;
12306;SDS011;6216;51.146;7.008;2022-08-19T03:25:49;9.00;;;8.20;;
12306;SDS011;6216;51.146;7.008;2022-08-19T03:28:38;9.03;;;8.33;;
12306;SDS011;6216;51.146;7.008;2022-08-19T03:31:09;9.13;;;8.37;;
12306;SDS011;6216;51.146;7.008;2022-08-19T03:33:59;9.60;;;8.70;;
12306;SDS011;6216;51.146;7.008;2022-08-19T03:36:28;9.10;;;8.20;;
12306;SDS011;6216;51.146;7.008;2022-08-19T03:38:57;9.63;;;8.83;;
12306;SDS011;6216;51.146;7.008;2022-08-19T03:41:27;9.30;;;8.50;;
12306;SDS011;6216;51.146;7.008;2022-08-19T03:44:11;9.60;;;8.90;;
12306;SDS011;6216;51.146;7.008;2022-08-19T03:46:45;9.87;;;8.93;;
12306;SDS011;6216;51.146;7.008;2022-08-19T03:49:14;10.33;;;9.47;;
12306;SDS011;6216;51.146;7.008;2022-08-19T03:51:45;10.30;;;9.40;;
12306;SDS011;6216;51.146;7.008;2022-08-19T03:54:14;10.30;;;9.40;;
12306;SDS011;6216;51.146;7.008;2022-08-19T03:56:44;10.90;;;9.80;;
12306;SDS011;6216;51.146;7.008;2022-08-19T03:59:15;11.17;;;10.27;;
12306;SDS011;6216;51.146;7.008;2022-08-19T04:01:47;10.40;;;9.50;;
12306;SDS011;6216;51.146;7.008;2022-08-19T04:04:15;10.77;;;9.70;;
12306;SDS011;6216;51.146;7.008;2022-08-19T04:06:45;11.30;;;10.30;;
12306;SDS011;6216;51.146;7.008;2022-08-19T04:09:14;10.67;;;9.73;;
12306;SDS011;6216;51.146;7.008;2022-08-19T04:11:43;10.90;;;9.90;;
12306;SDS011;6216;51.146;7.008;2022-08-19T04:14:14;11.87;;;10.87;;
12306;SDS011;6216;51.146;7.008;2022-08-19T04:16:44;10.90;;;10.00;;
12306;SDS011;6216;51.146;7.008;2022-08-19T04:19:15;12.23;;;10.43;;
12306;SDS011;6216;51.146;7.008;2022-08-19T04:21:45;12.20;;;10.97;;
12306;SDS011;6216;51.146;7.008;2022-08-19T04:24:15;13.03;;;11.93;;
12306;SDS011;6216;51.146;7.008;2022-08-19T04:26:43;12.33;;;11.17;;
12306;SDS011;6216;51.146;7.008;2022-08-19T04:29:12;13.47;;;12.37;;
12306;SDS011;6216;51.146;7.008;2022-08-19T04:31:43;13.73;;;12.40;;
12306;SDS011;6216;51.146;7.008;2022-08-19T04:34:14;12.87;;;11.77;;
12306;SDS011;6216;51.146;7.008;2022-08-19T04:36:44;16.43;;;12.73;;
12306;SDS011;6216;51.146;7.008;2022-08-19T04:39:13;14.80;;;13.30;;
12306;SDS011;6216;51.146;7.008;2022-08-19T04:41:44;15.00;;;12.73;;
12306;SDS011;6216;51.146;7.008;2022-08-19T04:44:30;15.53;;;14.03;;
12306;SDS011;6216;51.146;7.008;2022-08-19T04:47:00;14.07;;;12.40;;
12306;SDS011;6216;51.146;7.008;2022-08-19T04:49:38;13.60;;;12.20;;
12306;SDS011;6216;51.146;7.008;2022-08-19T04:52:06;12.97;;;11.87;;
12306;SDS011;6216;51.146;7.008;2022-08-19T04:54:34;12.70;;;11.47;;
12306;SDS011;6216;51.146;7.008;2022-08-19T04:57:06;13.03;;;11.93;;
12306;SDS011;6216;51.146;7.008;2022-08-19T04:59:37;12.50;;;11.30;;
12306;SDS011;6216;51.146;7.008;2022-08-19T05:02:06;13.73;;;12.53;;
12306;SDS011;6216;51.146;7.008;2022-08-19T05:04:35;12.83;;;11.63;;
12306;SDS011;6216;51.146;7.008;2022-08-19T05:07:18;13.57;;;12.27;;
12306;SDS011;6216;51.146;7.008;2022-08-19T05:09:52;14.23;;;13.03;;
12306;SDS011;6216;51.146;7.008;2022-08-19T05:12:26;14.03;;;12.73;;
12306;SDS011;6216;51.146;7.008;2022-08-19T05:14:56;16.07;;;14.47;;
12306;SDS011;6216;51.146;7.008;2022-08-19T05:17:30;14.67;;;13.37;;
12306;SDS011;6216;51.146;7.008;2022-08-19T05:20:04;15.80;;;14.20;;
12306;SDS011;6216;51.146;7.008;2022-08-19T05:22:52;16.10;;;14.70;;
12306;SDS011;6216;51.146;7.008;2022-08-19T05:25:21;16.83;;;15.10;;
12306;SDS011;6216;51.146;7.008;2022-08-19T05:27:51;17.70;;;16.10;;
12306;SDS011;6216;51.146;7.008;2022-08-19T05:30:24;16.83;;;15.13;;
12306;SDS011;6216;51.146;7.008;2022-08-19T05:33:18;16.90;;;15.17;;
12306;SDS011;6216;51.146;7.008;2022-08-19T05:36:00;18.10;;;16.47;;
12306;SDS011;6216;51.146;7.008;2022-08-19T05:38:31;17.60;;;15.87;;
12306;SDS011;6216;51.146;7.008;2022-08-19T05:40:59;17.33;;;15.73;;
12306;SDS011;6216;51.146;7.008;2022-08-19T05:43:28;17.50;;;15.87;;
12306;SDS011;6216;51.146;7.008;2022-08-19T05:45:57;19.47;;;17.67;;
12306;SDS011;6216;51.146;7.008;2022-08-19T05:48:25;22.03;;;19.83;;
12306;SDS011;6216;51.146;7.008;2022-08-19T05:50:53;25.17;;;22.60;;
12306;SDS011;6216;51.146;7.008;2022-08-19T05:53:26;24.03;;;21.77;;
12306;SDS011;6216;51.146;7.008;2022-08-19T05:55:56;24.10;;;21.80;;
12306;SDS011;6216;51.146;7.008;2022-08-19T05:58:24;24.73;;;21.97;;
12306;SDS011;6216;51.146;7.008;2022-08-19T06:00:53;22.63;;;20.57;;
12306;SDS011;6216;51.146;7.008;2022-08-19T06:03:21;25.10;;;22.60;;
12306;SDS011;6216;51.146;7.008;2022-08-19T06:05:50;26.30;;;23.40;;
12306;SDS011;6216;51.146;7.008;2022-08-19T06:08:19;29.43;;;26.60;;
12306;SDS011;6216;51.146;7.008;2022-08-19T06:11:12;28.90;;;25.90;;
12306;SDS011;6216;51.146;7.008;2022-08-19T06:13:43;28.80;;;26.00;;
12306;SDS011;6216;51.146;7.008;2022-08-19T06:16:14;29.10;;;26.13;;
12306;SDS011;6216;51.146;7.008;2022-08-19T06:18:48;28.93;;;25.57;;
12306;SDS011;6216;51.146;7.008;2022-08-19T06:21:18;30.83;;;27.47;;
12306;SDS011;6216;51.146;7.008;2022-08-19T06:23:47;28.93;;;25.90;;
12306;SDS011;6216;51.146;7.008;2022-08-19T06:26:18;26.50;;;24.10;;
12306;SDS011;6216;51.146;7.008;2022-08-19T06:28:47;27.00;;;24.50;;
12306;SDS011;6216;51.146;7.008;2022-08-19T06:31:16;25.93;;;23.23;;
12306;SDS011;6216;51.146;7.008;2022-08-19T06:33:47;27.37;;;23.80;;
12306;SDS011;6216;51.146;7.008;2022-08-19T06:36:16;28.67;;;25.50;;
12306;SDS011;6216;51.146;7.008;2022-08-19T06:38:45;29.47;;;24.97;;
12306;SDS011;6216;51.146;7.008;2022-08-19T06:41:13;29.63;;;26.63;;
12306;SDS011;6216;51.146;7.008;2022-08-19T06:43:42;28.07;;;25.13;;
12306;SDS011;6216;51.146;7.008;2022-08-19T06:46:11;27.10;;;24.20;;
12306;SDS011;6216;51.146;7.008;2022-08-19T06:48:40;29.33;;;26.33;;
12306;SDS011;6216;51.146;7.008;2022-08-19T06:51:11;27.80;;;24.90;;
12306;SDS011;6216;51.146;7.008;2022-08-19T06:53:45;35.23;;;29.80;;
12306;SDS011;6216;51.146;7.008;2022-08-19T06:56:14;32.40;;;29.27;;
12306;SDS011;6216;51.146;7.008;2022-08-19T06:58:44;27.73;;;24.93;;
12306;SDS011;6216;51.146;7.008;2022-08-19T07:01:12;31.30;;;28.40;;
12306;SDS011;6216;51.146;7.008;2022-08-19T07:03:40;35.70;;;32.23;;
12306;SDS011;6216;51.146;7.008;2022-08-19T07:06:11;39.13;;;35.20;;
12306;SDS011;6216;51.146;7.008;2022-08-19T07:09:04;37.70;;;33.90;;
12306;SDS011;6216;51.146;7.008;2022-08-19T07:11:33;32.90;;;29.73;;
12306;SDS011;6216;51.146;7.008;2022-08-19T07:14:03;43.50;;;38.77;;
12306;SDS011;6216;51.146;7.008;2022-08-19T07:16:44;36.20;;;32.30;;
12306;SDS011;6216;51.146;7.008;2022-08-19T07:19:12;36.77;;;33.20;;
12306;SDS011;6216;51.146;7.008;2022-08-19T07:21:44;40.53;;;36.53;;
12306;SDS011;6216;51.146;7.008;2022-08-19T07:24:15;37.97;;;34.33;;
12306;SDS011;6216;51.146;7.008;2022-08-19T07:26:44;36.70;;;33.10;;
12306;SDS011;6216;51.146;7.008;2022-08-19T07:29:18;40.87;;;36.77;;
12306;SDS011;6216;51.146;7.008;2022-08-19T07:31:51;36.83;;;33.00;;
12306;SDS011;6216;51.146;7.008;2022-08-19T07:34:22;36.77;;;33.10;;
12306;SDS011;6216;51.146;7.008;2022-08-19T07:36:52;42.30;;;38.17;;
12306;SDS011;6216;51.146;7.008;2022-08-19T07:39:22;40.97;;;36.77;;
12306;SDS011;6216;51.146;7.008;2022-08-19T07:41:52;34.20;;;30.83;;
12306;SDS011;6216;51.146;7.008;2022-08-19T07:44:21;32.37;;;29.07;;
12306;SDS011;6216;51.146;7.008;2022-08-19T07:46:51;37.63;;;33.93;;
12306;SDS011;6216;51.146;7.008;2022-08-19T07:49:21;40.73;;;36.60;;
12306;SDS011;6216;51.146;7.008;2022-08-19T07:51:51;32.73;;;29.17;;
12306;SDS011;6216;51.146;7.008;2022-08-19T07:54:20;40.83;;;36.97;;
12306;SDS011;6216;51.146;7.008;2022-08-19T07:56:49;40.33;;;36.13;;
12306;SDS011;6216;51.146;7.008;2022-08-19T07:59:18;36.27;;;32.70;;
12306;SDS011;6216;51.146;7.008;2022-08-19T08:01:49;34.07;;;30.43;;
12306;SDS011;6216;51.146;7.008;2022-08-19T08:04:18;31.83;;;28.67;;
12306;SDS011;6216;51.146;7.008;2022-08-19T08:07:05;34.87;;;31.07;;
12306;SDS011;6216;51.146;7.008;2022-08-19T08:09:57;28.30;;;25.23;;
12306;SDS011;6216;51.146;7.008;2022-08-19T08:12:29;38.63;;;34.70;;
12306;SDS011;6216;51.146;7.008;2022-08-19T08:15:03;27.97;;;24.83;;
12306;SDS011;6216;51.146;7.008;2022-08-19T08:17:39;29.37;;;25.63;;
12306;SDS011;6216;51.146;7.008;2022-08-19T08:20:17;35.83;;;31.00;;
12306;SDS011;6216;51.146;7.008;2022-08-19T08:22:45;36.17;;;32.33;;
12306;SDS011;6216;51.146;7.008;2022-08-19T08:25:32;35.63;;;31.73;;
12306;SDS011;6216;51.146;7.008;2022-08-19T08:28:01;35.23;;;31.10;;
12306;SDS011;6216;51.146;7.008;2022-08-19T08:30:30;28.13;;;25.13;;
12306;SDS011;6216;51.146;7.008;2022-08-19T08:33:03;22.27;;;19.60;;
12306;SDS011;6216;51.146;7.008;2022-08-19T08:35:31;28.87;;;26.03;;
12306;SDS011;6216;51.146;7.008;2022-08-19T08:38:00;22.60;;;19.17;;
12306;SDS011;6216;51.146;7.008;2022-08-19T08:40:30;29.07;;;25.27;;
12306;SDS011;6216;51.146;7.008;2022-08-19T08:43:06;23.97;;;21.47;;
12306;SDS011;6216;51.146;7.008;2022-08-19T08:45:38;28.17;;;25.47;;
12306;SDS011;6216;51.146;7.008;2022-08-19T08:48:21;31.73;;;28.43;;
12306;SDS011;6216;51.146;7.008;2022-08-19T08:50:53;23.77;;;21.40;;
12306;SDS011;6216;51.146;7.008;2022-08-19T08:53:23;23.47;;;20.97;;
12306;SDS011;6216;51.146;7.008;2022-08-19T08:56:00;21.13;;;19.17;;
12306;SDS011;6216;51.146;7.008;2022-08-19T08:58:33;20.97;;;18.77;;
12306;SDS011;6216;51.146;7.008;2022-08-19T09:01:10;23.57;;;20.97;;
12306;SDS011;6216;51.146;7.008;2022-08-19T09:03:40;21.93;;;20.03;;
12306;SDS011;6216;51.146;7.008;2022-08-19T09:06:13;29.57;;;24.60;;
12306;SDS011;6216;51.146;7.008;2022-08-19T09:08:52;22.07;;;19.53;;
12306;SDS011;6216;51.146;7.008;2022-08-19T09:11:33;23.70;;;21.47;;
12306;SDS011;6216;51.146;7.008;2022-08-19T09:14:15;23.33;;;20.97;;
12306;SDS011;6216;51.146;7.008;2022-08-19T09:17:12;22.33;;;18.03;;
12306;SDS011;6216;51.146;7.008;2022-08-19T09:19:52;23.43;;;21.10;;
12306;SDS011;6216;51.146;7.008;2022-08-19T09:22:22;22.83;;;19.17;;
12306;SDS011;6216;51.146;7.008;2022-08-19T09:24:52;18.23;;;16.33;;
12306;SDS011;6216;51.146;7.008;2022-08-19T09:27:21;22.73;;;20.07;;
12306;SDS011;6216;51.146;7.008;2022-08-19T09:30:09;35.47;;;26.00;;
12306;SDS011;6216;51.146;7.008;2022-08-19T09:32:41;25.43;;;22.97;;
12306;SDS011;6216;51.146;7.008;2022-08-19T09:35:11;22.77;;;20.43;;
12306;SDS011;6216;51.146;7.008;2022-08-19T09:37:40;20.93;;;18.77;;
12306;SDS011;6216;51.146;7.008;2022-08-19T09:40:10;21.90;;;19.80;;
12306;SDS011;6216;51.146;7.008;2022-08-19T09:42:40;24.23;;;21.80;;
12306;SDS011;6216;51.146;7.008;2022-08-19T09:45:18;30.60;;;27.30;;
12306;SDS011;6216;51.146;7.008;2022-08-19T09:47:48;26.73;;;21.90;;
12306;SDS011;6216;51.146;7.008;2022-08-19T09:50:21;22.27;;;18.80;;
12306;SDS011;6216;51.146;7.008;2022-08-19T09:52:50;28.53;;;25.13;;
12306;SDS011;6216;51.146;7.008;2022-08-19T09:55:23;23.07;;;18.80;;
12306;SDS011;6216;51.146;7.008;2022-08-19T09:57:59;21.17;;;19.03;;
12306;SDS011;6216;51.146;7.008;2022-08-19T10:00:28;15.77;;;14.23;;
12306;SDS011;6216;51.146;7.008;2022-08-19T10:02:56;16.77;;;15.27;;
12306;SDS011;6216;51.146;7.008;2022-08-19T10:05:27;19.73;;;17.83;;
12306;SDS011;6216;51.146;7.008;2022-08-19T10:08:14;27.77;;;24.97;;
12306;SDS011;6216;51.146;7.008;2022-08-19T10:10:43;23.30;;;21.07;;
12306;SDS011;6216;51.146;7.008;2022-08-19T10:13:13;20.60;;;18.40;;
12306;SDS011;6216;51.146;7.008;2022-08-19T10:15:43;18.50;;;16.07;;
12306;SDS011;6216;51.146;7.008;2022-08-19T10:18:14;19.03;;;17.23;;
12306;SDS011;6216;51.146;7.008;2022-08-19T10:20:46;23.80;;;21.27;;
12306;SDS011;6216;51.146;7.008;2022-08-19T10:23:18;24.77;;;22.20;;
12306;SDS011;6216;51.146;7.008;2022-08-19T10:25:47;21.60;;;18.17;;
12306;SDS011;6216;51.146;7.008;2022-08-19T10:28:19;22.67;;;20.37;;
12306;SDS011;6216;51.146;7.008;2022-08-19T10:30:48;17.57;;;15.80;;
12306;SDS011;6216;51.146;7.008;2022-08-19T10:33:16;22.80;;;20.60;;
12306;SDS011;6216;51.146;7.008;2022-08-19T10:36:07;14.17;;;12.70;;
12306;SDS011;6216;51.146;7.008;2022-08-19T10:38:37;16.17;;;14.57;;
12306;SDS011;6216;51.146;7.008;2022-08-19T10:41:17;15.33;;;13.77;;
12306;SDS011;6216;51.146;7.008;2022-08-19T10:43:50;20.70;;;18.77;;
12306;SDS011;6216;51.146;7.008;2022-08-19T10:46:18;15.77;;;14.37;;
12306;SDS011;6216;51.146;7.008;2022-08-19T10:48:47;13.60;;;12.20;;
12306;SDS011;6216;51.146;7.008;2022-08-19T10:51:18;14.50;;;13.10;;
12306;SDS011;6216;51.146;7.008;2022-08-19T10:54:13;12.57;;;11.57;;
12306;SDS011;6216;51.146;7.008;2022-08-19T10:56:41;10.43;;;9.43;;
12306;SDS011;6216;51.146;7.008;2022-08-19T10:59:19;17.03;;;14.97;;
12306;SDS011;6216;51.146;7.008;2022-08-19T11:01:52;11.30;;;10.33;;
12306;SDS011;6216;51.146;7.008;2022-08-19T11:04:22;13.37;;;11.67;;
12306;SDS011;6216;51.146;7.008;2022-08-19T11:06:56;10.60;;;9.70;;
12306;SDS011;6216;51.146;7.008;2022-08-19T11:09:24;12.30;;;10.53;;
12306;SDS011;6216;51.146;7.008;2022-08-19T11:11:59;13.03;;;9.30;;
12306;SDS011;6216;51.146;7.008;2022-08-19T11:14:30;9.57;;;8.67;;
12306;SDS011;6216;51.146;7.008;2022-08-19T11:16:59;11.00;;;9.47;;
12306;SDS011;6216;51.146;7.008;2022-08-19T11:19:28;9.87;;;9.07;;
12306;SDS011;6216;51.146;7.008;2022-08-19T11:21:57;13.07;;;11.60;;
12306;SDS011;6216;51.146;7.008;2022-08-19T11:24:29;9.00;;;8.20;;
12306;SDS011;6216;51.146;7.008;2022-08-19T11:27:02;13.77;;;10.07;;
12306;SDS011;6216;51.146;7.008;2022-08-19T11:29:33;9.20;;;8.37;;
12306;SDS011;6216;51.146;7.008;2022-08-19T11:32:04;15.20;;;13.50;;
12306;SDS011;6216;51.146;7.008;2022-08-19T11:34:33;12.57;;;11.30;;
12306;SDS011;6216;51.146;7.008;2022-08-19T11:37:03;10.13;;;9.07;;
12306;SDS011;6216;51.146;7.008;2022-08-19T11:39:32;13.00;;;11.90;;
12306;SDS011;6216;51.146;7.008;2022-08-19T11:42:02;11.47;;;10.30;;
12306;SDS011;6216;51.146;7.008;2022-08-19T11:44:50;10.13;;;8.77;;
12306;SDS011;6216;51.146;7.008;2022-08-19T11:47:19;9.93;;;8.27;;
12306;SDS011;6216;51.146;7.008;2022-08-19T11:49:48;15.87;;;7.40;;
12306;SDS011;6216;51.146;7.008;2022-08-19T11:52:17;13.40;;;12.00;;
12306;SDS011;6216;51.146;7.008;2022-08-19T11:54:45;9.93;;;8.93;;
12306;SDS011;6216;51.146;7.008;2022-08-19T11:57:14;10.20;;;8.50;;
12306;SDS011;6216;51.146;7.008;2022-08-19T11:59:47;9.23;;;8.40;;
12306;SDS011;6216;51.146;7.008;2022-08-19T12:02:15;9.47;;;8.60;;
12306;SDS011;6216;51.146;7.008;2022-08-19T12:04:43;10.03;;;9.23;;
12306;SDS011;6216;51.146;7.008;2022-08-19T12:07:11;8.47;;;7.47;;
12306;SDS011;6216;51.146;7.008;2022-08-19T12:09:41;9.07;;;8.20;;
12306;SDS011;6216;51.146;7.008;2022-08-19T12:12:11;8.67;;;7.97;;
12306;SDS011;6216;51.146;7.008;2022-08-19T12:14:39;7.03;;;6.33;;
12306;SDS011;6216;51.146;7.008;2022-08-19T12:17:10;12.90;;;8.27;;
12306;SDS011;6216;51.146;7.008;2022-08-19T12:19:39;6.43;;;5.93;;
12306;SDS011;6216;51.146;7.008;2022-08-19T12:22:07;6.27;;;5.67;;
12306;SDS011;6216;51.146;7.008;2022-08-19T12:24:35;6.07;;;5.57;;
12306;SDS011;6216;51.146;7.008;2022-08-19T12:27:04;5.97;;;5.47;;
12306;SDS011;6216;51.146;7.008;2022-08-19T12:29:38;6.03;;;5.43;;
12306;SDS011;6216;51.146;7.008;2022-08-19T12:32:06;7.73;;;6.00;;
12306;SDS011;6216;51.146;7.008;2022-08-19T12:34:37;7.57;;;6.20;;
12306;SDS011;6216;51.146;7.008;2022-08-19T12:37:06;6.97;;;6.37;;
12306;SDS011;6216;51.146;7.008;2022-08-19T12:39:36;8.00;;;7.33;;
12306;SDS011;6216;51.146;7.008;2022-08-19T12:42:07;7.80;;;5.80;;
12306;SDS011;6216;51.146;7.008;2022-08-19T12:44:35;6.93;;;6.30;;
12306;SDS011;6216;51.146;7.008;2022-08-19T12:47:07;5.70;;;5.20;;
12306;SDS011;6216;51.146;7.008;2022-08-19T12:49:37;5.67;;;5.10;;
12306;SDS011;6216;51.146;7.008;2022-08-19T12:52:21;6.53;;;4.87;;
12306;SDS011;6216;51.146;7.008;2022-08-19T12:54:50;6.33;;;5.70;;
12306;SDS011;6216;51.146;7.008;2022-08-19T12:57:22;6.80;;;5.90;;
12306;SDS011;6216;51.146;7.008;2022-08-19T12:59:59;6.27;;;5.07;;
12306;SDS011;6216;51.146;7.008;2022-08-19T13:02:30;6.50;;;5.93;;
12306;SDS011;6216;51.146;7.008;2022-08-19T13:05:04;7.83;;;6.00;;
12306;SDS011;6216;51.146;7.008;2022-08-19T13:07:34;6.87;;;6.23;;
12306;SDS011;6216;51.146;7.008;2022-08-19T13:10:03;8.03;;;6.20;;
12306;SDS011;6216;51.146;7.008;2022-08-19T13:12:34;7.80;;;6.33;;
12306;SDS011;6216;51.146;7.008;2022-08-19T13:15:02;7.50;;;6.10;;
12306;SDS011;6216;51.146;7.008;2022-08-19T13:17:36;6.57;;;5.97;;
12306;SDS011;6216;51.146;7.008;2022-08-19T13:20:05;6.03;;;5.43;;
12306;SDS011;6216;51.146;7.008;2022-08-19T13:22:34;7.80;;;6.10;;
12306;SDS011;6216;51.146;7.008;2022-08-19T13:25:05;5.53;;;5.10;;
12306;SDS011;6216;51.146;7.008;2022-08-19T13:27:36;5.77;;;5.33;;
12306;SDS011;6216;51.146;7.008;2022-08-19T13:30:07;6.20;;;5.70;;
12306;SDS011;6216;51.146;7.008;2022-08-19T13:32:55;6.47;;;5.27;;
12306;SDS011;6216;51.146;7.008;2022-08-19T13:35:42;6.93;;;6.23;;
12306;SDS011;6216;51.146;7.008;2022-08-19T13:38:13;6.23;;;5.73;;
12306;SDS011;6216;51.146;7.008;2022-08-19T13:40:42;5.93;;;4.37;;
12306;SDS011;6216;51.146;7.008;2022-08-19T13:43:15;5.57;;;4.67;;
12306;SDS011;6216;51.146;7.008;2022-08-19T13:45:48;7.60;;;4.97;;
12306;SDS011;6216;51.146;7.008;2022-08-19T13:48:22;5.20;;;4.80;;
12306;SDS011;6216;51.146;7.008;2022-08-19T13:50:52;5.43;;;4.60;;
12306;SDS011;6216;51.146;7.008;2022-08-19T13:53:21;4.83;;;4.17;;
12306;SDS011;6216;51.146;7.008;2022-08-19T13:55:49;4.93;;;4.50;;
12306;SDS011;6216;51.146;7.008;2022-08-19T13:58:21;6.87;;;5.07;;
12306;SDS011;6216;51.146;7.008;2022-08-19T14:00:49;6.77;;;5.00;;
12306;SDS011;6216;51.146;7.008;2022-08-19T14:03:17;6.13;;;4.00;;
12306;SDS011;6216;51.146;7.008;2022-08-19T14:05:45;4.20;;;3.80;;
12306;SDS011;6216;51.146;7.008;2022-08-19T14:08:13;7.73;;;4.13;;
12306;SDS011;6216;51.146;7.008;2022-08-19T14:10:42;5.80;;;4.40;;
12306;SDS011;6216;51.146;7.008;2022-08-19T14:13:13;8.47;;;4.60;;
12306;SDS011;6216;51.146;7.008;2022-08-19T14:15:44;5.33;;;4.57;;
12306;SDS011;6216;51.146;7.008;2022-08-19T14:18:13;6.73;;;5.37;;
12306;SDS011;6216;51.146;7.008;2022-08-19T14:20:42;7.33;;;4.30;;
12306;SDS011;6216;51.146;7.008;2022-08-19T14:23:11;6.07;;;4.30;;
12306;SDS011;6216;51.146;7.008;2022-08-19T14:25:39;9.70;;;4.37;;
12306;SDS011;6216;51.146;7.008;2022-08-19T14:28:08;4.87;;;4.50;;
12306;SDS011;6216;51.146;7.008;2022-08-19T14:30:36;4.53;;;4.23;;
12306;SDS011;6216;51.146;7.008;2022-08-19T14:33:06;7.37;;;4.00;;
12306;SDS011;6216;51.146;7.008;2022-08-19T14:35:35;5.30;;;3.40;;
12306;SDS011;6216;51.146;7.008;2022-08-19T14:38:05;3.47;;;3.17;;
12306;SDS011;6216;51.146;7.008;2022-08-19T14:40:34;3.60;;;3.30;;
12306;SDS011;6216;51.146;7.008;2022-08-19T14:43:02;3.67;;;3.17;;
12306;SDS011;6216;51.146;7.008;2022-08-19T14:45:31;4.10;;;3.53;;
12306;SDS011;6216;51.146;7.008;2022-08-19T14:48:02;3.90;;;3.50;;
12306;SDS011;6216;51.146;7.008;2022-08-19T14:50:32;4.17;;;3.33;;
12306;SDS011;6216;51.146;7.008;2022-08-19T14:53:01;3.63;;;3.13;;
12306;SDS011;6216;51.146;7.008;2022-08-19T14:55:40;4.67;;;3.93;;
12306;SDS011;6216;51.146;7.008;2022-08-19T14:58:09;4.33;;;3.97;;
12306;SDS011;6216;51.146;7.008;2022-08-19T15:00:55;6.13;;;3.60;;
12306;SDS011;6216;51.146;7.008;2022-08-19T15:03:24;4.10;;;3.40;;
12306;SDS011;6216;51.146;7.008;2022-08-19T15:05:54;5.07;;;3.70;;
12306;SDS011;6216;51.146;7.008;2022-08-19T15:08:23;4.23;;;3.37;;
12306;SDS011;6216;51.146;7.008;2022-08-19T15:10:52;4.97;;;3.90;;
12306;SDS011;6216;51.146;7.008;2022-08-19T15:13:20;4.00;;;3.57;;
12306;SDS011;6216;51.146;7.008;2022-08-19T15:15:49;5.73;;;3.60;;
12306;SDS011;6216;51.146;7.008;2022-08-19T15:18:17;4.20;;;3.10;;